ΕΜΥ, Εθνική Μετεωρολογική Υπηρεσία - Δελτία Καιρού, Προγνώσεις

ΑΕΡΟΝΑΥΤΙΛΙΑ

GREEK AIRPORTS CODES

TAF LGKF 090800Z 0909/0918 VRB05KT 9999 FEW018 TEMPO 0910/0915 5000 SHRA FEW018TCU BKN020 BECMG 0915/0917 35010KT=

EUROPEAN AIRPORTS CODES